sensor_id;sensor_type;location;lat;lon;timestamp;temperature;humidity
5134;DHT22;2585;48.696;10.066;2022-12-18T00:04:00;-8.10;91.00
5134;DHT22;2585;48.696;10.066;2022-12-18T00:06:29;-8.10;91.10
5134;DHT22;2585;48.696;10.066;2022-12-18T00:08:58;-8.10;91.20
5134;DHT22;2585;48.696;10.066;2022-12-18T00:11:28;-8.10;91.20
5134;DHT22;2585;48.696;10.066;2022-12-18T00:13:57;-8.10;91.30
5134;DHT22;2585;48.696;10.066;2022-12-18T00:16:26;-8.10;91.30
5134;DHT22;2585;48.696;10.066;2022-12-18T00:18:56;-8.10;91.40
5134;DHT22;2585;48.696;10.066;2022-12-18T00:21:29;-8.20;91.40
5134;DHT22;2585;48.696;10.066;2022-12-18T00:23:56;-8.20;91.40
5134;DHT22;2585;48.696;10.066;2022-12-18T00:26:26;-8.10;91.50
5134;DHT22;2585;48.696;10.066;2022-12-18T00:28:54;-8.10;91.50
5134;DHT22;2585;48.696;10.066;2022-12-18T00:31:23;-8.10;91.50
5134;DHT22;2585;48.696;10.066;2022-12-18T00:33:54;-8.00;91.60
5134;DHT22;2585;48.696;10.066;2022-12-18T00:36:30;-8.00;91.60
5134;DHT22;2585;48.696;10.066;2022-12-18T00:38:58;-8.00;91.60
5134;DHT22;2585;48.696;10.066;2022-12-18T00:41:26;-8.00;91.60
5134;DHT22;2585;48.696;10.066;2022-12-18T00:44:15;-8.10;91.60
5134;DHT22;2585;48.696;10.066;2022-12-18T00:46:43;-8.10;91.60
5134;DHT22;2585;48.696;10.066;2022-12-18T00:49:10;-8.00;91.60
5134;DHT22;2585;48.696;10.066;2022-12-18T00:51:40;-8.10;91.60
5134;DHT22;2585;48.696;10.066;2022-12-18T00:54:08;-8.10;91.60
5134;DHT22;2585;48.696;10.066;2022-12-18T00:56:38;-8.10;91.60
5134;DHT22;2585;48.696;10.066;2022-12-18T00:59:14;-8.10;91.70
5134;DHT22;2585;48.696;10.066;2022-12-18T01:01:41;-8.10;91.70
5134;DHT22;2585;48.696;10.066;2022-12-18T01:04:09;-8.10;91.70
5134;DHT22;2585;48.696;10.066;2022-12-18T01:06:36;-8.10;91.70
5134;DHT22;2585;48.696;10.066;2022-12-18T01:09:03;-8.10;91.70
5134;DHT22;2585;48.696;10.066;2022-12-18T01:11:30;-8.20;91.70
5134;DHT22;2585;48.696;10.066;2022-12-18T01:13:56;-8.30;91.70
5134;DHT22;2585;48.696;10.066;2022-12-18T01:16:26;-8.20;91.80
5134;DHT22;2585;48.696;10.066;2022-12-18T01:18:54;-8.20;91.80
5134;DHT22;2585;48.696;10.066;2022-12-18T01:21:22;-8.20;91.80
5134;DHT22;2585;48.696;10.066;2022-12-18T01:23:54;-8.30;91.80
5134;DHT22;2585;48.696;10.066;2022-12-18T01:26:21;-8.30;91.80
5134;DHT22;2585;48.696;10.066;2022-12-18T01:28:48;-8.30;91.80
5134;DHT22;2585;48.696;10.066;2022-12-18T01:31:23;-8.30;91.80
5134;DHT22;2585;48.696;10.066;2022-12-18T01:33:51;-8.40;91.70
5134;DHT22;2585;48.696;10.066;2022-12-18T01:36:19;-8.40;91.70
5134;DHT22;2585;48.696;10.066;2022-12-18T01:38:48;-8.30;91.70
5134;DHT22;2585;48.696;10.066;2022-12-18T01:41:19;-8.30;91.70
5134;DHT22;2585;48.696;10.066;2022-12-18T01:46:13;-8.20;91.70
5134;DHT22;2585;48.696;10.066;2022-12-18T01:48:40;-8.20;91.70
5134;DHT22;2585;48.696;10.066;2022-12-18T01:51:09;-8.20;91.70
5134;DHT22;2585;48.696;10.066;2022-12-18T01:53:37;-8.20;91.70
5134;DHT22;2585;48.696;10.066;2022-12-18T01:56:06;-8.20;91.70
5134;DHT22;2585;48.696;10.066;2022-12-18T01:58:39;-8.30;91.60
5134;DHT22;2585;48.696;10.066;2022-12-18T02:01:08;-8.40;91.60
5134;DHT22;2585;48.696;10.066;2022-12-18T02:03:35;-8.40;91.50
5134;DHT22;2585;48.696;10.066;2022-12-18T02:06:09;-8.40;91.50
5134;DHT22;2585;48.696;10.066;2022-12-18T02:16:41;-8.50;91.40
5134;DHT22;2585;48.696;10.066;2022-12-18T02:19:37;-8.50;91.30
5134;DHT22;2585;48.696;10.066;2022-12-18T02:22:24;-8.50;91.20
5134;DHT22;2585;48.696;10.066;2022-12-18T02:27:54;-8.50;91.20
5134;DHT22;2585;48.696;10.066;2022-12-18T02:30:22;-8.50;91.30
5134;DHT22;2585;48.696;10.066;2022-12-18T02:32:52;-8.50;91.40
5134;DHT22;2585;48.696;10.066;2022-12-18T02:35:23;-8.50;91.40
5134;DHT22;2585;48.696;10.066;2022-12-18T02:37:51;-8.60;91.40
5134;DHT22;2585;48.696;10.066;2022-12-18T02:40:25;-8.60;91.50
5134;DHT22;2585;48.696;10.066;2022-12-18T02:42:52;-8.70;91.50
5134;DHT22;2585;48.696;10.066;2022-12-18T02:45:19;-8.70;91.60
5134;DHT22;2585;48.696;10.066;2022-12-18T02:47:48;-8.70;91.60
5134;DHT22;2585;48.696;10.066;2022-12-18T02:50:36;-8.60;91.70
5134;DHT22;2585;48.696;10.066;2022-12-18T02:55:58;-8.50;91.80
5134;DHT22;2585;48.696;10.066;2022-12-18T03:01:24;-8.50;91.90
5134;DHT22;2585;48.696;10.066;2022-12-18T03:03:59;-8.40;91.90
5134;DHT22;2585;48.696;10.066;2022-12-18T03:06:35;-8.40;91.90
5134;DHT22;2585;48.696;10.066;2022-12-18T03:09:17;-8.30;92.00
5134;DHT22;2585;48.696;10.066;2022-12-18T03:11:52;-8.30;92.00
5134;DHT22;2585;48.696;10.066;2022-12-18T03:14:40;-8.30;92.00
5134;DHT22;2585;48.696;10.066;2022-12-18T03:17:12;-8.20;92.00
5134;DHT22;2585;48.696;10.066;2022-12-18T03:19:42;-8.20;92.10
5134;DHT22;2585;48.696;10.066;2022-12-18T03:22:10;-8.20;92.10
5134;DHT22;2585;48.696;10.066;2022-12-18T03:24:37;-8.10;92.10
5134;DHT22;2585;48.696;10.066;2022-12-18T03:27:11;-8.00;92.20
5134;DHT22;2585;48.696;10.066;2022-12-18T03:29:47;-8.00;92.20
5134;DHT22;2585;48.696;10.066;2022-12-18T03:32:20;-7.90;92.20
5134;DHT22;2585;48.696;10.066;2022-12-18T03:34:49;-7.90;92.20
5134;DHT22;2585;48.696;10.066;2022-12-18T03:37:17;-7.90;92.20
5134;DHT22;2585;48.696;10.066;2022-12-18T03:39:44;-7.90;92.20
5134;DHT22;2585;48.696;10.066;2022-12-18T03:50:20;-7.80;92.30
5134;DHT22;2585;48.696;10.066;2022-12-18T03:52:52;-7.80;92.30
5134;DHT22;2585;48.696;10.066;2022-12-18T03:55:22;-7.70;92.30
5134;DHT22;2585;48.696;10.066;2022-12-18T03:57:51;-7.70;92.30
5134;DHT22;2585;48.696;10.066;2022-12-18T04:00:19;-7.60;92.30
5134;DHT22;2585;48.696;10.066;2022-12-18T04:02:52;-7.60;92.30
5134;DHT22;2585;48.696;10.066;2022-12-18T04:05:21;-7.60;92.30
5134;DHT22;2585;48.696;10.066;2022-12-18T04:07:50;-7.60;92.30
5134;DHT22;2585;48.696;10.066;2022-12-18T04:10:18;-7.60;92.40
5134;DHT22;2585;48.696;10.066;2022-12-18T04:12:48;-7.50;92.40
5134;DHT22;2585;48.696;10.066;2022-12-18T04:15:15;-7.50;92.40
5134;DHT22;2585;48.696;10.066;2022-12-18T04:17:47;-7.50;92.40
5134;DHT22;2585;48.696;10.066;2022-12-18T04:20:14;-7.40;92.40
5134;DHT22;2585;48.696;10.066;2022-12-18T04:22:41;-7.40;92.40
5134;DHT22;2585;48.696;10.066;2022-12-18T04:25:11;-7.40;92.40
5134;DHT22;2585;48.696;10.066;2022-12-18T04:27:38;-7.40;92.40
5134;DHT22;2585;48.696;10.066;2022-12-18T04:30:06;-7.40;92.40
5134;DHT22;2585;48.696;10.066;2022-12-18T04:32:33;-7.30;92.50
5134;DHT22;2585;48.696;10.066;2022-12-18T04:35:01;-7.30;92.50
5134;DHT22;2585;48.696;10.066;2022-12-18T04:37:27;-7.20;92.50
5134;DHT22;2585;48.696;10.066;2022-12-18T04:39:54;-7.20;92.50
5134;DHT22;2585;48.696;10.066;2022-12-18T04:42:21;-7.30;92.50
5134;DHT22;2585;48.696;10.066;2022-12-18T04:44:48;-7.20;92.50
5134;DHT22;2585;48.696;10.066;2022-12-18T04:47:14;-7.20;92.50
5134;DHT22;2585;48.696;10.066;2022-12-18T04:49:41;-7.20;92.50
5134;DHT22;2585;48.696;10.066;2022-12-18T04:52:08;-7.20;92.50
5134;DHT22;2585;48.696;10.066;2022-12-18T04:54:35;-7.20;92.50
5134;DHT22;2585;48.696;10.066;2022-12-18T04:57:01;-7.20;92.50
5134;DHT22;2585;48.696;10.066;2022-12-18T04:59:28;-7.20;92.50
5134;DHT22;2585;48.696;10.066;2022-12-18T05:01:55;-7.10;92.50
5134;DHT22;2585;48.696;10.066;2022-12-18T05:04:22;-7.20;92.50
5134;DHT22;2585;48.696;10.066;2022-12-18T05:06:49;-7.10;92.50
5134;DHT22;2585;48.696;10.066;2022-12-18T05:09:16;-7.10;92.50
5134;DHT22;2585;48.696;10.066;2022-12-18T05:11:45;-7.10;92.50
5134;DHT22;2585;48.696;10.066;2022-12-18T05:14:13;-7.10;92.50
5134;DHT22;2585;48.696;10.066;2022-12-18T05:16:39;-7.10;92.50
5134;DHT22;2585;48.696;10.066;2022-12-18T05:19:06;-7.10;92.50
5134;DHT22;2585;48.696;10.066;2022-12-18T05:21:33;-7.10;92.50
5134;DHT22;2585;48.696;10.066;2022-12-18T05:24:00;-7.20;92.50
5134;DHT22;2585;48.696;10.066;2022-12-18T05:26:27;-7.10;92.50
5134;DHT22;2585;48.696;10.066;2022-12-18T05:28:56;-7.10;92.50
5134;DHT22;2585;48.696;10.066;2022-12-18T05:31:23;-7.10;92.50
5134;DHT22;2585;48.696;10.066;2022-12-18T05:33:50;-7.10;92.50
5134;DHT22;2585;48.696;10.066;2022-12-18T05:36:17;-7.10;92.50
5134;DHT22;2585;48.696;10.066;2022-12-18T05:38:44;-7.10;92.50
5134;DHT22;2585;48.696;10.066;2022-12-18T05:41:11;-7.10;92.50
5134;DHT22;2585;48.696;10.066;2022-12-18T05:43:39;-7.10;92.50
5134;DHT22;2585;48.696;10.066;2022-12-18T05:46:10;-7.20;92.50
5134;DHT22;2585;48.696;10.066;2022-12-18T05:48:37;-7.10;92.50
5134;DHT22;2585;48.696;10.066;2022-12-18T05:51:07;-7.10;92.50
5134;DHT22;2585;48.696;10.066;2022-12-18T05:53:35;-7.10;92.50
5134;DHT22;2585;48.696;10.066;2022-12-18T05:56:04;-7.10;92.50
5134;DHT22;2585;48.696;10.066;2022-12-18T05:58:32;-7.10;92.50
5134;DHT22;2585;48.696;10.066;2022-12-18T06:01:14;-7.10;92.50
5134;DHT22;2585;48.696;10.066;2022-12-18T06:03:42;-7.00;92.50
5134;DHT22;2585;48.696;10.066;2022-12-18T06:06:21;-7.00;92.50
5134;DHT22;2585;48.696;10.066;2022-12-18T06:08:49;-7.10;92.50
5134;DHT22;2585;48.696;10.066;2022-12-18T06:11:25;-7.10;92.50
5134;DHT22;2585;48.696;10.066;2022-12-18T06:13:53;-7.10;92.50
5134;DHT22;2585;48.696;10.066;2022-12-18T06:16:25;-7.10;92.50
5134;DHT22;2585;48.696;10.066;2022-12-18T06:18:52;-7.10;92.50
5134;DHT22;2585;48.696;10.066;2022-12-18T06:21:18;-7.10;92.50
5134;DHT22;2585;48.696;10.066;2022-12-18T06:23:46;-7.20;92.50
5134;DHT22;2585;48.696;10.066;2022-12-18T06:26:13;-7.10;92.50
5134;DHT22;2585;48.696;10.066;2022-12-18T06:28:40;-7.10;92.50
5134;DHT22;2585;48.696;10.066;2022-12-18T06:31:08;-7.10;92.50
5134;DHT22;2585;48.696;10.066;2022-12-18T06:33:35;-7.10;92.50
5134;DHT22;2585;48.696;10.066;2022-12-18T06:36:05;-7.20;92.50
5134;DHT22;2585;48.696;10.066;2022-12-18T06:38:36;-7.20;92.50
5134;DHT22;2585;48.696;10.066;2022-12-18T06:41:08;-7.20;92.50
5134;DHT22;2585;48.696;10.066;2022-12-18T06:43:35;-7.20;92.50
5134;DHT22;2585;48.696;10.066;2022-12-18T06:46:04;-7.20;92.50
5134;DHT22;2585;48.696;10.066;2022-12-18T06:48:32;-7.30;92.50
5134;DHT22;2585;48.696;10.066;2022-12-18T06:50:59;-7.30;92.50
5134;DHT22;2585;48.696;10.066;2022-12-18T06:53:27;-7.30;92.50
5134;DHT22;2585;48.696;10.066;2022-12-18T06:56:05;-7.30;92.50
5134;DHT22;2585;48.696;10.066;2022-12-18T06:58:36;-7.40;92.40
5134;DHT22;2585;48.696;10.066;2022-12-18T07:01:07;-7.40;92.50
5134;DHT22;2585;48.696;10.066;2022-12-18T07:03:34;-7.40;92.50
5134;DHT22;2585;48.696;10.066;2022-12-18T07:06:01;-7.40;92.50
5134;DHT22;2585;48.696;10.066;2022-12-18T07:08:29;-7.30;92.50
5134;DHT22;2585;48.696;10.066;2022-12-18T07:10:56;-7.30;92.50
5134;DHT22;2585;48.696;10.066;2022-12-18T07:13:23;-7.30;92.50
5134;DHT22;2585;48.696;10.066;2022-12-18T07:15:50;-7.30;92.50
5134;DHT22;2585;48.696;10.066;2022-12-18T07:18:17;-7.20;92.50
5134;DHT22;2585;48.696;10.066;2022-12-18T07:20:43;-7.30;92.50
5134;DHT22;2585;48.696;10.066;2022-12-18T07:23:11;-7.20;92.50
5134;DHT22;2585;48.696;10.066;2022-12-18T07:25:38;-7.20;92.50
5134;DHT22;2585;48.696;10.066;2022-12-18T07:28:06;-7.20;92.50
5134;DHT22;2585;48.696;10.066;2022-12-18T07:30:37;-7.20;92.50
5134;DHT22;2585;48.696;10.066;2022-12-18T07:33:04;-7.20;92.50
5134;DHT22;2585;48.696;10.066;2022-12-18T07:35:33;-7.20;92.50
5134;DHT22;2585;48.696;10.066;2022-12-18T07:38:00;-7.10;92.50
5134;DHT22;2585;48.696;10.066;2022-12-18T07:40:29;-7.10;92.50
5134;DHT22;2585;48.696;10.066;2022-12-18T07:42:56;-7.10;92.50
5134;DHT22;2585;48.696;10.066;2022-12-18T07:45:23;-7.10;92.50
5134;DHT22;2585;48.696;10.066;2022-12-18T07:47:49;-7.10;92.50
5134;DHT22;2585;48.696;10.066;2022-12-18T07:50:16;-7.10;92.50
5134;DHT22;2585;48.696;10.066;2022-12-18T07:52:43;-7.10;92.50
5134;DHT22;2585;48.696;10.066;2022-12-18T07:55:10;-7.10;92.50
5134;DHT22;2585;48.696;10.066;2022-12-18T07:57:37;-7.10;92.50
5134;DHT22;2585;48.696;10.066;2022-12-18T08:00:23;-7.00;92.50
5134;DHT22;2585;48.696;10.066;2022-12-18T08:02:50;-7.00;92.50
5134;DHT22;2585;48.696;10.066;2022-12-18T08:05:17;-7.00;92.50
5134;DHT22;2585;48.696;10.066;2022-12-18T08:07:44;-6.90;92.60
5134;DHT22;2585;48.696;10.066;2022-12-18T08:10:11;-6.90;92.60
5134;DHT22;2585;48.696;10.066;2022-12-18T08:12:38;-6.90;92.60
5134;DHT22;2585;48.696;10.066;2022-12-18T08:15:05;-6.90;92.60
5134;DHT22;2585;48.696;10.066;2022-12-18T08:17:32;-6.90;92.60
5134;DHT22;2585;48.696;10.066;2022-12-18T08:19:59;-6.90;92.50
5134;DHT22;2585;48.696;10.066;2022-12-18T08:22:26;-6.90;92.50
5134;DHT22;2585;48.696;10.066;2022-12-18T08:24:53;-6.90;92.50
5134;DHT22;2585;48.696;10.066;2022-12-18T08:27:19;-6.80;92.60
5134;DHT22;2585;48.696;10.066;2022-12-18T08:29:55;-6.80;92.60
5134;DHT22;2585;48.696;10.066;2022-12-18T08:32:22;-6.80;92.60
5134;DHT22;2585;48.696;10.066;2022-12-18T08:34:49;-6.80;92.50
5134;DHT22;2585;48.696;10.066;2022-12-18T08:37:16;-6.80;92.50
5134;DHT22;2585;48.696;10.066;2022-12-18T08:39:42;-6.80;92.50
5134;DHT22;2585;48.696;10.066;2022-12-18T08:42:09;-6.80;92.50
5134;DHT22;2585;48.696;10.066;2022-12-18T08:44:55;-6.80;92.50
5134;DHT22;2585;48.696;10.066;2022-12-18T08:47:22;-6.70;92.60
5134;DHT22;2585;48.696;10.066;2022-12-18T08:49:52;-6.70;92.60
5134;DHT22;2585;48.696;10.066;2022-12-18T08:52:19;-6.70;92.60
5134;DHT22;2585;48.696;10.066;2022-12-18T08:54:47;-6.70;92.60
5134;DHT22;2585;48.696;10.066;2022-12-18T08:57:13;-6.70;92.60
5134;DHT22;2585;48.696;10.066;2022-12-18T08:59:40;-6.60;92.60
5134;DHT22;2585;48.696;10.066;2022-12-18T09:02:10;-6.60;92.60
5134;DHT22;2585;48.696;10.066;2022-12-18T09:04:37;-6.50;92.60
5134;DHT22;2585;48.696;10.066;2022-12-18T09:07:06;-6.50;92.60
5134;DHT22;2585;48.696;10.066;2022-12-18T09:09:33;-6.50;92.60
5134;DHT22;2585;48.696;10.066;2022-12-18T09:11:59;-6.40;92.60
5134;DHT22;2585;48.696;10.066;2022-12-18T09:14:26;-6.40;92.60
5134;DHT22;2585;48.696;10.066;2022-12-18T09:16:53;-6.40;92.60
5134;DHT22;2585;48.696;10.066;2022-12-18T09:19:20;-6.40;92.60
5134;DHT22;2585;48.696;10.066;2022-12-18T09:21:46;-6.40;92.60
5134;DHT22;2585;48.696;10.066;2022-12-18T09:24:14;-6.50;92.50
5134;DHT22;2585;48.696;10.066;2022-12-18T09:26:42;-6.50;92.50
5134;DHT22;2585;48.696;10.066;2022-12-18T09:29:13;-6.50;92.50
5134;DHT22;2585;48.696;10.066;2022-12-18T09:31:41;-6.50;92.50
5134;DHT22;2585;48.696;10.066;2022-12-18T09:34:08;-6.40;92.50
5134;DHT22;2585;48.696;10.066;2022-12-18T09:36:35;-6.40;92.50
5134;DHT22;2585;48.696;10.066;2022-12-18T09:39:03;-6.30;92.60
5134;DHT22;2585;48.696;10.066;2022-12-18T09:41:44;-6.30;92.60
5134;DHT22;2585;48.696;10.066;2022-12-18T09:49:38;-6.00;92.60
5134;DHT22;2585;48.696;10.066;2022-12-18T09:52:21;-6.10;92.50
5134;DHT22;2585;48.696;10.066;2022-12-18T09:54:55;-6.20;92.50
5134;DHT22;2585;48.696;10.066;2022-12-18T09:57:24;-6.20;92.50
5134;DHT22;2585;48.696;10.066;2022-12-18T10:00:06;-6.30;92.40
5134;DHT22;2585;48.696;10.066;2022-12-18T10:02:35;-6.20;92.50
5134;DHT22;2585;48.696;10.066;2022-12-18T10:05:09;-6.10;92.50
5134;DHT22;2585;48.696;10.066;2022-12-18T10:07:42;-6.10;92.50
5134;DHT22;2585;48.696;10.066;2022-12-18T10:16:08;-6.00;92.50
5134;DHT22;2585;48.696;10.066;2022-12-18T10:21:21;-5.90;92.60
5134;DHT22;2585;48.696;10.066;2022-12-18T10:23:55;-5.90;92.60
5134;DHT22;2585;48.696;10.066;2022-12-18T10:26:24;-5.90;92.60
5134;DHT22;2585;48.696;10.066;2022-12-18T10:28:53;-5.90;92.60
5134;DHT22;2585;48.696;10.066;2022-12-18T10:31:23;-5.80;92.60
5134;DHT22;2585;48.696;10.066;2022-12-18T10:33:51;-5.80;92.60
5134;DHT22;2585;48.696;10.066;2022-12-18T10:36:20;-5.80;92.60
5134;DHT22;2585;48.696;10.066;2022-12-18T10:38:49;-5.90;92.50
5134;DHT22;2585;48.696;10.066;2022-12-18T10:43:47;-5.70;92.60
5134;DHT22;2585;48.696;10.066;2022-12-18T10:46:17;-5.70;92.60
5134;DHT22;2585;48.696;10.066;2022-12-18T10:51:31;-5.70;92.60
5134;DHT22;2585;48.696;10.066;2022-12-18T10:54:21;-5.70;92.60
5134;DHT22;2585;48.696;10.066;2022-12-18T10:56:49;-5.70;92.60
5134;DHT22;2585;48.696;10.066;2022-12-18T10:59:17;-5.60;92.60
5134;DHT22;2585;48.696;10.066;2022-12-18T11:01:55;-5.50;92.60
5134;DHT22;2585;48.696;10.066;2022-12-18T11:04:28;-5.40;92.70
5134;DHT22;2585;48.696;10.066;2022-12-18T11:07:00;-5.50;92.60
5134;DHT22;2585;48.696;10.066;2022-12-18T11:09:33;-5.60;92.50
5134;DHT22;2585;48.696;10.066;2022-12-18T11:12:26;-5.60;92.50
5134;DHT22;2585;48.696;10.066;2022-12-18T11:14:53;-5.60;92.50
5134;DHT22;2585;48.696;10.066;2022-12-18T11:20:05;-5.40;92.60
5134;DHT22;2585;48.696;10.066;2022-12-18T11:22:36;-5.40;92.60
5134;DHT22;2585;48.696;10.066;2022-12-18T11:28:02;-5.30;92.60
5134;DHT22;2585;48.696;10.066;2022-12-18T11:30:37;-5.30;92.50
5134;DHT22;2585;48.696;10.066;2022-12-18T11:33:10;-5.30;92.50
5134;DHT22;2585;48.696;10.066;2022-12-18T11:35:59;-5.40;92.50
5134;DHT22;2585;48.696;10.066;2022-12-18T11:38:35;-5.30;92.50
5134;DHT22;2585;48.696;10.066;2022-12-18T11:41:26;-5.40;92.50
5134;DHT22;2585;48.696;10.066;2022-12-18T11:44:26;-5.30;92.50
5134;DHT22;2585;48.696;10.066;2022-12-18T11:47:03;-5.30;92.50
5134;DHT22;2585;48.696;10.066;2022-12-18T11:49:35;-5.30;92.50
5134;DHT22;2585;48.696;10.066;2022-12-18T11:52:22;-5.40;92.50
5134;DHT22;2585;48.696;10.066;2022-12-18T11:54:55;-5.50;92.50
5134;DHT22;2585;48.696;10.066;2022-12-18T12:13:29;-5.40;92.60
5134;DHT22;2585;48.696;10.066;2022-12-18T12:16:21;-5.40;92.60
5134;DHT22;2585;48.696;10.066;2022-12-18T12:33:12;-5.30;92.70
5134;DHT22;2585;48.696;10.066;2022-12-18T12:36:08;-5.30;92.70
5134;DHT22;2585;48.696;10.066;2022-12-18T12:39:05;-5.20;92.80
5134;DHT22;2585;48.696;10.066;2022-12-18T12:41:35;-5.10;92.80
5134;DHT22;2585;48.696;10.066;2022-12-18T12:44:32;-5.10;92.80
5134;DHT22;2585;48.696;10.066;2022-12-18T12:47:07;-5.10;92.70
5134;DHT22;2585;48.696;10.066;2022-12-18T12:49:38;-5.00;92.80
5134;DHT22;2585;48.696;10.066;2022-12-18T12:52:12;-5.00;92.70
5134;DHT22;2585;48.696;10.066;2022-12-18T12:54:41;-5.10;92.70
5134;DHT22;2585;48.696;10.066;2022-12-18T12:57:33;-5.30;92.60
5134;DHT22;2585;48.696;10.066;2022-12-18T13:00:13;-5.30;92.60
5134;DHT22;2585;48.696;10.066;2022-12-18T13:03:08;-5.40;92.60
5134;DHT22;2585;48.696;10.066;2022-12-18T13:05:49;-5.30;92.70
5134;DHT22;2585;48.696;10.066;2022-12-18T13:08:30;-5.40;92.70
5134;DHT22;2585;48.696;10.066;2022-12-18T13:11:01;-5.40;92.70
5134;DHT22;2585;48.696;10.066;2022-12-18T13:13:51;-5.20;92.80
5134;DHT22;2585;48.696;10.066;2022-12-18T13:16:20;-5.30;92.70
5134;DHT22;2585;48.696;10.066;2022-12-18T13:18:52;-5.20;92.80
5134;DHT22;2585;48.696;10.066;2022-12-18T13:21:32;-5.20;92.80
5134;DHT22;2585;48.696;10.066;2022-12-18T13:24:26;-5.10;92.80
5134;DHT22;2585;48.696;10.066;2022-12-18T13:26:53;-5.10;92.80
5134;DHT22;2585;48.696;10.066;2022-12-18T13:29:40;-5.10;92.80
5134;DHT22;2585;48.696;10.066;2022-12-18T13:32:25;-5.10;92.80
5134;DHT22;2585;48.696;10.066;2022-12-18T13:37:51;-5.10;92.70
5134;DHT22;2585;48.696;10.066;2022-12-18T13:45:58;-5.20;92.70
5134;DHT22;2585;48.696;10.066;2022-12-18T13:48:27;-5.20;92.70
5134;DHT22;2585;48.696;10.066;2022-12-18T13:51:05;-5.20;92.70
5134;DHT22;2585;48.696;10.066;2022-12-18T13:53:43;-5.20;92.70
5134;DHT22;2585;48.696;10.066;2022-12-18T13:56:16;-5.20;92.80
5134;DHT22;2585;48.696;10.066;2022-12-18T13:59:08;-5.20;92.70
5134;DHT22;2585;48.696;10.066;2022-12-18T14:02:27;-5.20;92.70
5134;DHT22;2585;48.696;10.066;2022-12-18T14:04:33;-5.30;92.70
5134;DHT22;2585;48.696;10.066;2022-12-18T14:07:05;-5.40;92.70
5134;DHT22;2585;48.696;10.066;2022-12-18T14:09:44;-5.40;92.70
5134;DHT22;2585;48.696;10.066;2022-12-18T14:12:25;-5.30;92.80
5134;DHT22;2585;48.696;10.066;2022-12-18T14:15:32;-5.20;92.80
5134;DHT22;2585;48.696;10.066;2022-12-18T14:19:04;-5.40;92.80
5134;DHT22;2585;48.696;10.066;2022-12-18T14:21:06;-5.40;92.80
5134;DHT22;2585;48.696;10.066;2022-12-18T14:23:42;-5.50;92.80
5134;DHT22;2585;48.696;10.066;2022-12-18T14:26:29;-5.40;92.80
5134;DHT22;2585;48.696;10.066;2022-12-18T14:28:57;-5.40;92.80
5134;DHT22;2585;48.696;10.066;2022-12-18T14:31:26;-5.40;92.80
5134;DHT22;2585;48.696;10.066;2022-12-18T14:33:54;-5.40;92.80
5134;DHT22;2585;48.696;10.066;2022-12-18T14:36:25;-5.40;92.80
5134;DHT22;2585;48.696;10.066;2022-12-18T14:38:54;-5.40;92.80
5134;DHT22;2585;48.696;10.066;2022-12-18T14:41:22;-5.40;92.80
5134;DHT22;2585;48.696;10.066;2022-12-18T14:43:52;-5.40;92.80
5134;DHT22;2585;48.696;10.066;2022-12-18T14:46:49;-5.40;92.80
5134;DHT22;2585;48.696;10.066;2022-12-18T14:49:31;-5.40;92.80
5134;DHT22;2585;48.696;10.066;2022-12-18T14:52:26;-5.50;92.80
5134;DHT22;2585;48.696;10.066;2022-12-18T14:54:54;-5.50;92.80
5134;DHT22;2585;48.696;10.066;2022-12-18T14:57:25;-5.50;92.80
5134;DHT22;2585;48.696;10.066;2022-12-18T15:00:04;-5.50;92.80
5134;DHT22;2585;48.696;10.066;2022-12-18T15:02:31;-5.50;92.80
5134;DHT22;2585;48.696;10.066;2022-12-18T15:05:25;-5.60;92.80
5134;DHT22;2585;48.696;10.066;2022-12-18T15:07:53;-5.70;92.80
5134;DHT22;2585;48.696;10.066;2022-12-18T15:10:33;-5.70;92.80
5134;DHT22;2585;48.696;10.066;2022-12-18T15:18:01;-5.60;92.80
5134;DHT22;2585;48.696;10.066;2022-12-18T15:20:39;-5.60;92.80
5134;DHT22;2585;48.696;10.066;2022-12-18T15:26:03;-5.60;92.80
5134;DHT22;2585;48.696;10.066;2022-12-18T15:28:37;-5.60;92.80
5134;DHT22;2585;48.696;10.066;2022-12-18T15:33:41;-5.70;92.80
5134;DHT22;2585;48.696;10.066;2022-12-18T15:36:12;-5.80;92.80
5134;DHT22;2585;48.696;10.066;2022-12-18T15:38:40;-5.80;92.80
5134;DHT22;2585;48.696;10.066;2022-12-18T15:41:19;-5.80;92.80
5134;DHT22;2585;48.696;10.066;2022-12-18T15:43:52;-5.70;92.80
5134;DHT22;2585;48.696;10.066;2022-12-18T15:46:21;-5.70;92.80
5134;DHT22;2585;48.696;10.066;2022-12-18T15:48:56;-5.70;92.80
5134;DHT22;2585;48.696;10.066;2022-12-18T15:51:31;-5.70;92.80
5134;DHT22;2585;48.696;10.066;2022-12-18T15:54:00;-5.80;92.80
5134;DHT22;2585;48.696;10.066;2022-12-18T15:56:30;-5.70;92.90
5134;DHT22;2585;48.696;10.066;2022-12-18T15:59:17;-5.70;92.90
5134;DHT22;2585;48.696;10.066;2022-12-18T16:01:47;-5.80;92.80
5134;DHT22;2585;48.696;10.066;2022-12-18T16:04:17;-5.80;92.80
5134;DHT22;2585;48.696;10.066;2022-12-18T16:06:44;-5.80;92.80
5134;DHT22;2585;48.696;10.066;2022-12-18T16:09:31;-5.80;92.80
5134;DHT22;2585;48.696;10.066;2022-12-18T16:11:57;-5.80;92.80
5134;DHT22;2585;48.696;10.066;2022-12-18T16:14:29;-5.80;92.80
5134;DHT22;2585;48.696;10.066;2022-12-18T16:16:58;-5.80;92.80
5134;DHT22;2585;48.696;10.066;2022-12-18T16:19:26;-5.70;92.90
5134;DHT22;2585;48.696;10.066;2022-12-18T16:21:55;-5.70;92.90
5134;DHT22;2585;48.696;10.066;2022-12-18T16:24:27;-5.80;92.80
5134;DHT22;2585;48.696;10.066;2022-12-18T16:26:56;-5.80;92.80
5134;DHT22;2585;48.696;10.066;2022-12-18T16:29:26;-5.80;92.80
5134;DHT22;2585;48.696;10.066;2022-12-18T16:31:55;-5.70;92.90
5134;DHT22;2585;48.696;10.066;2022-12-18T16:34:27;-5.80;92.80
5134;DHT22;2585;48.696;10.066;2022-12-18T16:37:03;-5.80;92.80
5134;DHT22;2585;48.696;10.066;2022-12-18T16:39:32;-5.80;92.80
5134;DHT22;2585;48.696;10.066;2022-12-18T16:42:12;-5.80;92.80
5134;DHT22;2585;48.696;10.066;2022-12-18T16:44:41;-5.80;92.80
5134;DHT22;2585;48.696;10.066;2022-12-18T16:47:08;-5.80;92.80
5134;DHT22;2585;48.696;10.066;2022-12-18T16:49:37;-5.80;92.80
5134;DHT22;2585;48.696;10.066;2022-12-18T16:52:05;-5.80;92.80
5134;DHT22;2585;48.696;10.066;2022-12-18T16:54:32;-5.80;92.80
5134;DHT22;2585;48.696;10.066;2022-12-18T16:57:00;-5.90;92.80
5134;DHT22;2585;48.696;10.066;2022-12-18T16:59:27;-5.80;92.80
5134;DHT22;2585;48.696;10.066;2022-12-18T17:01:55;-5.90;92.80
5134;DHT22;2585;48.696;10.066;2022-12-18T17:04:23;-6.00;92.80
5134;DHT22;2585;48.696;10.066;2022-12-18T17:06:50;-6.00;92.80
5134;DHT22;2585;48.696;10.066;2022-12-18T17:09:20;-6.00;92.80
5134;DHT22;2585;48.696;10.066;2022-12-18T17:11:56;-6.00;92.80
5134;DHT22;2585;48.696;10.066;2022-12-18T17:14:23;-5.90;92.80
5134;DHT22;2585;48.696;10.066;2022-12-18T17:16:54;-6.00;92.80
5134;DHT22;2585;48.696;10.066;2022-12-18T17:19:42;-5.90;92.80
5134;DHT22;2585;48.696;10.066;2022-12-18T17:22:09;-5.90;92.80
5134;DHT22;2585;48.696;10.066;2022-12-18T17:24:36;-5.90;92.80
5134;DHT22;2585;48.696;10.066;2022-12-18T17:27:03;-5.90;92.80
5134;DHT22;2585;48.696;10.066;2022-12-18T17:29:30;-5.90;92.80
5134;DHT22;2585;48.696;10.066;2022-12-18T17:31:57;-5.90;92.80
5134;DHT22;2585;48.696;10.066;2022-12-18T17:34:26;-5.90;92.80
5134;DHT22;2585;48.696;10.066;2022-12-18T17:36:52;-5.90;92.80
5134;DHT22;2585;48.696;10.066;2022-12-18T17:39:21;-5.90;92.80
5134;DHT22;2585;48.696;10.066;2022-12-18T17:41:48;-5.90;92.80
5134;DHT22;2585;48.696;10.066;2022-12-18T17:44:15;-5.90;92.80
5134;DHT22;2585;48.696;10.066;2022-12-18T17:46:43;-6.00;92.80
5134;DHT22;2585;48.696;10.066;2022-12-18T17:49:10;-6.00;92.80
5134;DHT22;2585;48.696;10.066;2022-12-18T17:51:37;-6.00;92.80
5134;DHT22;2585;48.696;10.066;2022-12-18T17:54:04;-6.00;92.80
5134;DHT22;2585;48.696;10.066;2022-12-18T17:56:31;-6.00;92.80